Open Full Screen Window  High Contrast Mode
December 20, 2014 11:40 PM EST
Weather Information
Wind Direction
  ---
Wind Speed
  00 kt (0 mph)
Wind Gust
  00 kt (0 mph)
Altimeter
30.29 in
Visibility
7 SM
Temperature
00° C
32° F
Dewpoint
-01° C
30° F
Humidity
93%
1hr Rain Fall
00.00 in.
24hr Rain Fall
00.00 in.
Sky Condition
Overcast @ 2,000 ft
MVFR

METAR KI69 210440Z AUTO 00000KT 7SM OVC020 00/M01 A3029 RMK AO1

*Background is not an actual portrayal of the airport.